Time;durP1;ratioP1;P1;durP2;ratioP2;P2;SDS_P1;SDS_P2;PMS_P1;PMS_P2;Temp;Humidity;BMP_temperature;BMP_pressure;BME280_temperature;BME280_humidity;BME280_pressure;Samples;Min_cycle;Max_cycle;Signal;HPM_P1;HPM_P2
2021/12/30 00:00:42;;;;;;;32.30;4.97;;;8.40;99.90;;;;;;4975099;28;20145;-84
2021/12/30 00:03:09;;;;;;;42.13;6.03;;;9.00;99.90;;;;;;4992545;28;20496;-87
2021/12/30 00:05:35;;;;;;;32.97;5.28;;;8.40;99.90;;;;;;5010393;28;20054;-81
2021/12/30 00:08:01;;;;;;;39.22;5.13;;;8.40;99.90;;;;;;5011916;28;20164;-84
2021/12/30 00:10:26;;;;;;;36.85;4.60;;;8.30;99.90;;;;;;4992578;28;20261;-81
2021/12/30 00:12:53;;;;;;;44.72;5.85;;;8.30;99.90;;;;;;4994205;28;20046;-84
2021/12/30 00:15:19;;;;;;;42.95;5.40;;;8.30;99.90;;;;;;4978212;28;20058;-83
2021/12/30 00:17:45;;;;;;;50.22;6.80;;;8.30;99.90;;;;;;5010208;28;20038;-82
2021/12/30 00:20:11;;;;;;;36.03;5.72;;;8.20;99.90;;;;;;4993969;28;20390;-82
2021/12/30 00:22:38;;;;;;;43.20;5.53;;;8.20;99.90;;;;;;4976719;28;20058;-81
2021/12/30 00:25:06;;;;;;;52.95;6.25;;;8.20;99.90;;;;;;4992455;28;20046;-82
2021/12/30 00:27:32;;;;;;;46.97;5.80;;;8.20;99.90;;;;;;4974800;28;20050;-83
2021/12/30 00:29:58;;;;;;;33.47;5.18;;;8.60;99.90;;;;;;4978413;28;20385;-84
2021/12/30 00:32:23;;;;;;;52.60;5.25;;;8.70;99.90;;;;;;4977558;28;20386;-84
2021/12/30 00:34:49;;;;;;;48.47;6.35;;;8.20;99.90;;;;;;4993725;28;20048;-82
2021/12/30 00:37:15;;;;;;;46.85;5.40;;;8.20;99.90;;;;;;4993729;28;20514;-82
2021/12/30 00:39:40;;;;;;;47.65;6.43;;;8.10;99.90;;;;;;5011441;28;20444;-83
2021/12/30 00:42:06;;;;;;;37.92;5.70;;;8.10;99.90;;;;;;5011947;28;20115;-81
2021/12/30 00:44:32;;;;;;;42.50;6.57;;;8.10;99.90;;;;;;4994238;28;20393;-82
2021/12/30 00:46:59;;;;;;;47.03;6.78;;;8.10;99.90;;;;;;4993565;28;20507;-82
2021/12/30 00:49:28;;;;;;;43.88;6.43;;;8.70;99.90;;;;;;5011704;28;20136;-82
2021/12/30 00:51:53;;;;;;;53.78;6.85;;;8.10;99.90;;;;;;4999579;28;20061;-82
2021/12/30 00:54:19;;;;;;;51.88;5.95;;;8.00;99.90;;;;;;4992127;28;20070;-81
2021/12/30 00:56:45;;;;;;;46.08;6.25;;;8.00;99.90;;;;;;4974441;28;20082;-81
2021/12/30 00:59:11;;;;;;;53.78;6.30;;;8.00;99.90;;;;;;4991619;28;20034;-82
2021/12/30 01:01:37;;;;;;;45.70;7.03;;;7.90;99.90;;;;;;4974187;28;20046;-81
2021/12/30 01:04:04;;;;;;;58.95;6.90;;;7.90;99.90;;;;;;4991612;28;20053;-82
2021/12/30 01:06:30;;;;;;;44.00;6.32;;;7.90;99.90;;;;;;4997485;28;20058;-82
2021/12/30 01:08:57;;;;;;;44.10;6.70;;;7.90;99.90;;;;;;4975637;28;20383;-81
2021/12/30 01:11:24;;;;;;;54.47;7.47;;;7.80;99.90;;;;;;4991534;28;20493;-86
2021/12/30 01:13:59;;;;;;;64.82;7.88;;;7.80;99.90;;;;;;4991793;28;20429;-82
2021/12/30 01:16:29;;;;;;;47.92;7.03;;;7.80;99.90;;;;;;4991098;28;20511;-84
2021/12/30 01:19:15;;;;;;;40.70;6.65;;;7.80;99.90;;;;;;4991377;28;20568;-82
2021/12/30 01:21:41;;;;;;;48.92;6.88;;;7.80;99.90;;;;;;4967447;28;20057;-81
2021/12/30 01:24:07;;;;;;;50.42;6.85;;;7.80;99.90;;;;;;4993716;28;20081;-82
2021/12/30 01:26:33;;;;;;;53.40;6.85;;;7.90;99.90;;;;;;5011358;28;20472;-83
2021/12/30 01:28:59;;;;;;;46.08;5.95;;;7.80;99.90;;;;;;4993124;28;20038;-86
2021/12/30 01:31:25;;;;;;;46.00;6.28;;;7.80;99.90;;;;;;4993793;28;20420;-84
2021/12/30 01:33:51;;;;;;;43.58;6.85;;;7.90;99.90;;;;;;5011095;28;20100;-82
2021/12/30 01:36:17;;;;;;;47.88;6.70;;;7.90;99.90;;;;;;5011417;28;20070;-83
2021/12/30 01:38:45;;;;;;;52.30;5.95;;;7.90;99.90;;;;;;5011300;28;20093;-85
2021/12/30 01:41:11;;;;;;;48.42;6.65;;;8.00;99.90;;;;;;4993932;28;20401;-83
2021/12/30 01:43:37;;;;;;;56.20;7.90;;;7.80;99.90;;;;;;5009827;28;20050;-82
2021/12/30 01:46:05;;;;;;;48.20;7.20;;;7.90;99.90;;;;;;4993889;28;20389;-87
2021/12/30 01:48:31;;;;;;;41.80;5.80;;;8.50;99.90;;;;;;5011419;28;20448;-82
2021/12/30 01:50:57;;;;;;;44.83;6.40;;;7.90;99.90;;;;;;4997523;28;20126;-81
2021/12/30 01:53:22;;;;;;;54.60;7.75;;;7.80;99.90;;;;;;4997549;28;20042;-81
2021/12/30 01:55:49;;;;;;;44.15;6.15;;;7.80;99.90;;;;;;5015178;28;20382;-82
2021/12/30 01:58:16;;;;;;;60.13;6.80;;;7.80;99.90;;;;;;4997601;28;20080;-81
2021/12/30 02:00:45;;;;;;;50.47;7.88;;;8.20;99.90;;;;;;4995935;28;20042;-81
2021/12/30 02:03:12;;;;;;;41.38;7.25;;;7.70;99.90;;;;;;5014817;28;20526;-81
2021/12/30 02:05:39;;;;;;;44.58;7.40;;;7.70;99.90;;;;;;5014547;28;20092;-82
2021/12/30 02:08:07;;;;;;;55.03;6.95;;;7.60;99.90;;;;;;5014726;28;20539;-82
2021/12/30 02:10:33;;;;;;;45.97;6.47;;;7.50;99.90;;;;;;5004048;28;20084;-82
2021/12/30 02:12:59;;;;;;;51.42;6.78;;;7.50;99.90;;;;;;4994804;28;20780;-83
2021/12/30 02:15:25;;;;;;;49.05;6.53;;;7.60;99.90;;;;;;4995153;28;20089;-82
2021/12/30 02:17:52;;;;;;;47.45;7.05;;;7.80;99.90;;;;;;4977605;28;20104;-82
2021/12/30 02:20:45;;;;;;;46.60;6.07;;;7.50;99.90;;;;;;4977291;28;20054;-82
2021/12/30 02:23:13;;;;;;;47.92;5.68;;;7.50;99.90;;;;;;4994884;28;20050;-81
2021/12/30 02:25:39;;;;;;;49.50;7.93;;;7.40;99.90;;;;;;4994671;28;20046;-82
2021/12/30 02:28:11;;;;;;;42.67;6.90;;;7.40;99.90;;;;;;4976967;28;20096;-82
2021/12/30 02:30:37;;;;;;;46.28;6.72;;;7.40;99.90;;;;;;4961294;28;20149;-82
2021/12/30 02:33:04;;;;;;;46.42;6.90;;;7.50;99.90;;;;;;4994628;28;20441;-83
2021/12/30 02:35:31;;;;;;;47.35;7.22;;;7.50;99.90;;;;;;4994425;28;20050;-82
2021/12/30 02:37:57;;;;;;;51.55;6.80;;;7.90;99.90;;;;;;4976872;28;20125;-82
2021/12/30 02:40:35;;;;;;;42.40;7.10;;;7.60;99.90;;;;;;4976806;28;20049;-82
2021/12/30 02:43:02;;;;;;;60.67;8.13;;;7.60;99.90;;;;;;4995563;28;20050;-81
2021/12/30 02:45:28;;;;;;;54.47;7.15;;;7.60;99.90;;;;;;4994558;28;20047;-81
2021/12/30 02:47:54;;;;;;;48.20;7.53;;;7.60;99.90;;;;;;4976887;28;20077;-82
2021/12/30 02:50:19;;;;;;;62.88;8.10;;;7.60;99.90;;;;;;4995338;28;20050;-82
2021/12/30 02:52:45;;;;;;;52.58;7.65;;;7.60;99.90;;;;;;4993722;28;20042;-81
2021/12/30 02:55:11;;;;;;;52.97;8.52;;;7.60;99.90;;;;;;4976434;28;20046;-82
2021/12/30 02:57:37;;;;;;;59.60;8.93;;;7.60;99.90;;;;;;4994160;28;20383;-81
2021/12/30 03:00:06;;;;;;;59.88;10.20;;;7.60;99.90;;;;;;4976749;28;20054;-82
2021/12/30 03:02:35;;;;;;;56.03;8.18;;;7.60;99.90;;;;;;4993347;28;20054;-82
2021/12/30 03:05:01;;;;;;;60.05;8.93;;;7.70;99.90;;;;;;4994080;28;20042;-84
2021/12/30 03:07:28;;;;;;;63.53;10.20;;;7.70;99.90;;;;;;4993060;28;20065;-82
2021/12/30 03:09:54;;;;;;;72.63;9.40;;;7.70;99.90;;;;;;4976149;28;20058;-82
2021/12/30 03:12:20;;;;;;;52.72;10.65;;;7.70;99.90;;;;;;4984284;28;20064;-81
2021/12/30 03:14:46;;;;;;;52.90;9.95;;;7.70;99.90;;;;;;5013412;28;20042;-82
2021/12/30 03:17:12;;;;;;;52.85;9.95;;;7.70;99.90;;;;;;5013282;28;20128;-81
2021/12/30 03:19:38;;;;;;;66.70;9.52;;;7.80;99.90;;;;;;5013460;28;20130;-83
2021/12/30 03:22:03;;;;;;;64.63;10.48;;;7.80;99.90;;;;;;4979582;28;20093;-82
2021/12/30 03:24:30;;;;;;;61.53;10.90;;;7.80;99.90;;;;;;4995012;28;20053;-82
2021/12/30 03:26:56;;;;;;;60.65;10.82;;;8.20;99.90;;;;;;5000020;28;20093;-83
2021/12/30 03:29:21;;;;;;;67.88;12.50;;;7.90;99.90;;;;;;4993532;28;20441;-82
2021/12/30 03:31:47;;;;;;;54.13;11.73;;;8.00;99.90;;;;;;4976054;28;20572;-82
2021/12/30 03:34:14;;;;;;;65.40;12.30;;;8.00;99.90;;;;;;4975850;28;20050;-83
2021/12/30 03:36:39;;;;;;;62.60;13.25;;;8.10;99.90;;;;;;4993328;28;20049;-81
2021/12/30 03:39:05;;;;;;;68.68;13.15;;;8.20;99.90;;;;;;4993015;28;20397;-80
2021/12/30 03:41:32;;;;;;;64.70;13.00;;;8.20;99.90;;;;;;4994797;28;20093;-84
2021/12/30 03:44:00;;;;;;;64.18;11.65;;;8.20;99.90;;;;;;5012954;28;20054;-82
2021/12/30 03:46:27;;;;;;;57.10;12.82;;;8.30;99.90;;;;;;5013091;28;20042;-83
2021/12/30 03:48:53;;;;;;;67.13;12.80;;;8.30;99.90;;;;;;5012486;28;20045;-84
2021/12/30 03:51:22;;;;;;;55.75;10.68;;;8.30;99.90;;;;;;5012755;28;20060;-81
2021/12/30 03:53:50;;;;;;;62.47;11.57;;;8.40;99.90;;;;;;5012555;28;20033;-82
2021/12/30 03:56:19;;;;;;;58.78;11.43;;;8.40;99.90;;;;;;4995334;28;20041;-82
2021/12/30 03:58:46;;;;;;;60.42;10.75;;;8.60;99.90;;;;;;5013181;28;20042;-84
2021/12/30 04:01:14;;;;;;;78.43;12.32;;;8.40;99.90;;;;;;4994966;28;20045;-84
2021/12/30 04:03:40;;;;;;;60.05;11.25;;;8.50;99.90;;;;;;5012885;28;20148;-82
2021/12/30 04:06:06;;;;;;;61.45;11.40;;;8.50;99.90;;;;;;5012575;28;20056;-82
2021/12/30 04:08:32;;;;;;;59.25;10.95;;;8.50;99.90;;;;;;5012033;28;20073;-85
2021/12/30 04:10:58;;;;;;;60.63;11.20;;;8.40;99.90;;;;;;5010856;28;20046;-82
2021/12/30 04:13:24;;;;;;;85.32;12.32;;;8.60;99.90;;;;;;5010552;28;20385;-82
2021/12/30 04:15:51;;;;;;;73.70;11.70;;;8.50;99.90;;;;;;5012484;28;20408;-82
2021/12/30 04:18:16;;;;;;;71.85;13.85;;;8.50;99.90;;;;;;5012302;28;20052;-81
2021/12/30 04:20:42;;;;;;;61.92;11.15;;;8.50;99.90;;;;;;4994061;28;20053;-80
2021/12/30 04:23:08;;;;;;;73.65;11.38;;;8.50;99.90;;;;;;4994311;28;20042;-81
2021/12/30 04:25:34;;;;;;;73.07;11.95;;;8.90;99.90;;;;;;5011596;28;20135;-82
2021/12/30 04:28:00;;;;;;;66.95;11.55;;;8.50;99.90;;;;;;5012162;28;20464;-83
2021/12/30 04:30:26;;;;;;;71.80;11.65;;;8.90;99.90;;;;;;5012010;28;20131;-81
2021/12/30 04:32:53;;;;;;;71.60;11.00;;;8.70;99.90;;;;;;5007652;28;20069;-82
2021/12/30 04:35:19;;;;;;;70.85;12.57;;;8.70;99.90;;;;;;4992287;28;20054;-83
2021/12/30 04:37:44;;;;;;;79.68;11.77;;;8.80;99.90;;;;;;4974909;28;20050;-82
2021/12/30 04:40:12;;;;;;;66.68;11.57;;;8.80;99.90;;;;;;4992204;28;20054;-81
2021/12/30 04:42:38;;;;;;;81.97;12.45;;;8.90;99.90;;;;;;5001624;28;20054;-82
2021/12/30 04:45:04;;;;;;;63.35;11.60;;;8.90;99.90;;;;;;5012277;28;20069;-80
2021/12/30 04:47:30;;;;;;;83.90;13.82;;;9.00;99.90;;;;;;4994430;28;20571;-81
2021/12/30 04:49:57;;;;;;;79.75;12.23;;;9.20;99.90;;;;;;5011705;28;20073;-83
2021/12/30 04:52:23;;;;;;;70.30;13.48;;;9.40;99.90;;;;;;4994130;28;20042;-85
2021/12/30 04:54:49;;;;;;;62.58;12.45;;;9.30;99.90;;;;;;5011560;28;21014;-82
2021/12/30 04:57:16;;;;;;;91.70;14.02;;;9.40;99.90;;;;;;5011260;28;20141;-81
2021/12/30 04:59:41;;;;;;;82.72;14.38;;;9.40;99.90;;;;;;4994279;28;20033;-81
2021/12/30 05:02:07;;;;;;;94.07;15.50;;;9.40;99.90;;;;;;5011457;28;20057;-82
2021/12/30 05:04:33;;;;;;;88.22;14.40;;;9.50;99.90;;;;;;4994120;28;20058;-82
2021/12/30 05:06:58;;;;;;;90.65;15.95;;;9.50;99.90;;;;;;5011260;28;20046;-82
2021/12/30 05:09:24;;;;;;;88.28;15.90;;;9.50;99.90;;;;;;4993200;28;20048;-80
2021/12/30 05:11:50;;;;;;;82.72;16.55;;;9.70;99.90;;;;;;5009627;28;20057;-83
2021/12/30 05:14:16;;;;;;;109.45;18.23;;;9.70;99.90;;;;;;5011192;28;20103;-83
2021/12/30 05:16:43;;;;;;;97.00;18.13;;;9.70;99.90;;;;;;5011355;28;20054;-85
2021/12/30 05:19:09;;;;;;;80.13;17.98;;;9.80;99.90;;;;;;5011373;28;20667;-84
2021/12/30 05:21:35;;;;;;;90.43;18.65;;;9.80;99.90;;;;;;5011239;28;20042;-85
2021/12/30 05:24:01;;;;;;;96.40;19.40;;;10.50;99.90;;;;;;4993183;28;20085;-82
2021/12/30 05:26:28;;;;;;;91.68;18.80;;;10.00;99.90;;;;;;5011101;28;20112;-81
2021/12/30 05:28:58;;;;;;;74.20;17.92;;;10.00;99.90;;;;;;5010543;28;20508;-84
2021/12/30 05:31:25;;;;;;;78.40;19.00;;;10.00;99.90;;;;;;4990533;28;20129;-84
2021/12/30 05:33:51;;;;;;;78.45;18.27;;;10.00;99.90;;;;;;4991601;28;20485;-86
2021/12/30 05:36:17;;;;;;;64.78;16.30;;;10.00;99.90;;;;;;4991663;28;20512;-85
2021/12/30 05:38:43;;;;;;;63.03;15.65;;;10.10;99.90;;;;;;4979053;28;20042;-83
2021/12/30 05:41:09;;;;;;;55.63;14.45;;;10.20;99.90;;;;;;5011113;28;20089;-82
2021/12/30 05:43:35;;;;;;;48.10;13.13;;;10.10;99.90;;;;;;5009355;28;20093;-82
2021/12/30 05:46:00;;;;;;;52.90;12.93;;;10.70;99.90;;;;;;5011327;28;20073;-82
2021/12/30 05:48:27;;;;;;;43.47;13.55;;;10.10;99.90;;;;;;4993515;28;20782;-83
2021/12/30 05:50:54;;;;;;;45.30;13.20;;;10.40;99.90;;;;;;4993873;28;20466;-82
2021/12/30 05:53:20;;;;;;;44.22;12.95;;;10.10;99.90;;;;;;5011130;28;20042;-82
2021/12/30 05:55:46;;;;;;;35.92;12.45;;;10.20;99.90;;;;;;4977274;28;20046;-82
2021/12/30 05:58:11;;;;;;;45.05;13.18;;;10.20;99.90;;;;;;5011091;28;20040;-83
2021/12/30 06:00:38;;;;;;;33.60;12.65;;;10.20;99.90;;;;;;5010912;28;20489;-82
2021/12/30 06:03:03;;;;;;;37.33;13.02;;;10.20;99.90;;;;;;5010953;28;20045;-81
2021/12/30 06:05:29;;;;;;;46.22;13.35;;;10.30;99.90;;;;;;5010905;28;20104;-82
2021/12/30 06:07:55;;;;;;;38.33;13.07;;;10.50;99.90;;;;;;5010662;28;20416;-81
2021/12/30 06:10:21;;;;;;;41.85;13.32;;;10.50;99.90;;;;;;4991497;28;20054;-81
2021/12/30 06:12:47;;;;;;;45.38;13.75;;;10.40;99.90;;;;;;5010978;28;20037;-82
2021/12/30 06:15:13;;;;;;;61.13;15.27;;;10.30;99.90;;;;;;5010080;28;20570;-82
2021/12/30 06:17:39;;;;;;;49.67;14.82;;;10.30;99.90;;;;;;5009474;28;20104;-83
2021/12/30 06:20:07;;;;;;;55.25;16.75;;;10.40;99.90;;;;;;4976914;28;20515;-81
2021/12/30 06:22:33;;;;;;;62.60;17.30;;;10.40;99.90;;;;;;4976776;28;20053;-85
2021/12/30 06:24:59;;;;;;;70.38;16.88;;;10.40;99.90;;;;;;4976934;28;20480;-81
2021/12/30 06:27:25;;;;;;;61.53;18.30;;;10.60;99.90;;;;;;5010585;28;20057;-82
2021/12/30 06:29:51;;;;;;;68.82;17.55;;;10.50;99.90;;;;;;5010676;28;20050;-82
2021/12/30 06:32:16;;;;;;;79.32;18.48;;;10.50;99.90;;;;;;5010407;28;20393;-83
2021/12/30 06:34:42;;;;;;;76.32;17.55;;;10.90;99.90;;;;;;5010644;28;20045;-81
2021/12/30 06:37:08;;;;;;;73.13;18.58;;;10.50;99.90;;;;;;4994758;28;20380;-83
2021/12/30 06:39:33;;;;;;;88.60;19.05;;;10.50;99.90;;;;;;5000733;28;20050;-85
2021/12/30 06:41:59;;;;;;;67.57;17.08;;;11.10;99.90;;;;;;4976904;28;20492;-83
2021/12/30 06:44:25;;;;;;;79.78;17.42;;;10.80;99.90;;;;;;4994544;28;20086;-83
2021/12/30 06:46:59;;;;;;;79.70;17.50;;;10.60;99.90;;;;;;4994161;28;20045;-81
2021/12/30 06:49:25;;;;;;;59.15;15.63;;;10.60;99.90;;;;;;4994343;28;20046;-82
2021/12/30 06:51:52;;;;;;;65.00;16.35;;;10.70;99.90;;;;;;4994357;28;20038;-82
2021/12/30 06:54:17;;;;;;;49.10;14.40;;;11.00;99.90;;;;;;4995202;28;20085;-85
2021/12/30 06:56:43;;;;;;;46.35;13.75;;;10.70;99.90;;;;;;4976422;28;20070;-81
2021/12/30 06:59:14;;;;;;;48.08;14.10;;;10.70;99.90;;;;;;4994100;28;20103;-81
2021/12/30 07:01:42;;;;;;;39.83;13.27;;;10.70;99.90;;;;;;4993797;28;20058;-82
2021/12/30 07:04:08;;;;;;;42.17;12.57;;;11.10;99.90;;;;;;4994091;28;20046;-82
2021/12/30 07:06:34;;;;;;;40.65;11.07;;;11.10;99.90;;;;;;4993923;28;20042;-82
2021/12/30 07:08:59;;;;;;;37.30;11.68;;;10.70;99.90;;;;;;4994597;28;20065;-83
2021/12/30 07:11:25;;;;;;;33.78;10.65;;;11.20;99.90;;;;;;4993530;28;20083;-80
2021/12/30 07:13:51;;;;;;;30.45;9.95;;;10.80;99.90;;;;;;4993751;28;20093;-81
2021/12/30 07:16:16;;;;;;;30.40;10.38;;;10.80;99.90;;;;;;4994021;28;20042;-83
2021/12/30 07:18:42;;;;;;;27.77;10.63;;;11.40;99.90;;;;;;4993502;28;20042;-82
2021/12/30 07:21:07;;;;;;;24.88;9.68;;;10.80;99.90;;;;;;4993760;28;20089;-81
2021/12/30 07:23:33;;;;;;;21.50;9.05;;;11.00;99.90;;;;;;4993732;28;20038;-84
2021/12/30 07:25:59;;;;;;;21.88;9.43;;;10.90;99.90;;;;;;4976011;28;20485;-81
2021/12/30 07:28:24;;;;;;;20.90;9.10;;;10.80;99.90;;;;;;4976036;28;20085;-82
2021/12/30 07:30:50;;;;;;;20.08;8.75;;;11.10;99.90;;;;;;5008197;28;20052;-81
2021/12/30 07:33:16;;;;;;;19.20;8.70;;;10.90;99.90;;;;;;5009083;28;20035;-79
2021/12/30 07:35:42;;;;;;;19.60;8.95;;;10.80;99.90;;;;;;5012142;28;20042;-80
2021/12/30 07:38:07;;;;;;;18.35;8.55;;;11.30;99.90;;;;;;5013901;28;20052;-80
2021/12/30 07:40:33;;;;;;;14.73;7.28;;;10.90;99.90;;;;;;5008537;28;20086;-81
2021/12/30 07:42:59;;;;;;;18.60;7.63;;;11.00;99.90;;;;;;4994423;28;20504;-80
2021/12/30 07:45:25;;;;;;;14.88;7.53;;;11.00;99.90;;;;;;5012659;28;20139;-79
2021/12/30 07:47:51;;;;;;;13.50;6.63;;;11.00;99.90;;;;;;5012089;28;20065;-80
2021/12/30 07:50:17;;;;;;;12.48;6.90;;;10.90;99.90;;;;;;5011920;28;20037;-81
2021/12/30 07:52:42;;;;;;;9.50;5.30;;;11.00;99.90;;;;;;5012773;28;20041;-79
2021/12/30 07:55:10;;;;;;;11.88;6.13;;;11.00;99.90;;;;;;5010349;28;20046;-78
2021/12/30 07:57:36;;;;;;;12.10;5.90;;;11.00;99.90;;;;;;4989121;28;20105;-83
2021/12/30 08:00:05;;;;;;;9.93;5.78;;;11.00;99.90;;;;;;4993244;28;20054;-80
2021/12/30 08:02:31;;;;;;;8.85;5.20;;;11.00;99.90;;;;;;4993356;28;20046;-79
2021/12/30 08:04:57;;;;;;;9.73;5.45;;;11.10;99.90;;;;;;4993487;28;20465;-82
2021/12/30 08:07:24;;;;;;;7.95;4.40;;;11.40;99.90;;;;;;4992510;28;20054;-79
2021/12/30 08:09:50;;;;;;;9.27;5.15;;;11.10;99.90;;;;;;4998881;28;20713;-80
2021/12/30 08:12:15;;;;;;;7.60;4.78;;;11.10;99.90;;;;;;5012492;28;20120;-80
2021/12/30 08:14:41;;;;;;;8.77;4.63;;;11.10;99.90;;;;;;5012284;28;20550;-83
2021/12/30 08:17:07;;;;;;;8.65;4.70;;;11.10;99.90;;;;;;4997484;28;20105;-84
2021/12/30 08:19:33;;;;;;;8.00;4.50;;;11.10;99.90;;;;;;4992356;28;20077;-80
2021/12/30 08:21:59;;;;;;;8.82;4.82;;;11.20;99.90;;;;;;4992513;28;20038;-82
2021/12/30 08:24:27;;;;;;;10.05;5.45;;;11.50;99.90;;;;;;4992376;28;20394;-82
2021/12/30 08:26:52;;;;;;;9.27;5.00;;;11.30;99.90;;;;;;4974855;28;20062;-81
2021/12/30 08:29:18;;;;;;;9.23;5.78;;;11.60;99.90;;;;;;4992621;28;20417;-80
2021/12/30 08:31:43;;;;;;;11.63;5.65;;;11.30;99.90;;;;;;4993818;28;20042;-80
2021/12/30 08:34:09;;;;;;;10.48;5.78;;;11.30;99.90;;;;;;5011917;28;20045;-79
2021/12/30 08:36:35;;;;;;;12.00;5.28;;;11.90;99.90;;;;;;5004472;28;20042;-81
2021/12/30 08:39:00;;;;;;;11.80;6.45;;;11.80;99.90;;;;;;4996972;28;20042;-82
2021/12/30 08:41:26;;;;;;;17.40;7.13;;;11.60;99.90;;;;;;4994042;28;20760;-81
2021/12/30 08:43:52;;;;;;;14.68;5.95;;;11.30;99.90;;;;;;5009668;28;20049;-81
2021/12/30 08:46:18;;;;;;;14.20;6.05;;;11.40;99.90;;;;;;5010331;28;20038;-81
2021/12/30 08:48:46;;;;;;;11.52;5.97;;;11.40;99.90;;;;;;5010256;28;20396;-82
2021/12/30 08:51:12;;;;;;;12.52;5.63;;;11.90;99.90;;;;;;5011235;28;20057;-81
2021/12/30 08:53:40;;;;;;;11.85;4.07;;;11.50;99.90;;;;;;4993547;28;20077;-82
2021/12/30 08:56:14;;;;;;;10.68;4.75;;;11.50;99.90;;;;;;5009993;28;20053;-81
2021/12/30 08:58:40;;;;;;;15.75;5.18;;;11.70;99.90;;;;;;4993191;28;20401;-81
2021/12/30 09:01:06;;;;;;;17.63;4.85;;;11.60;99.90;;;;;;5010937;28;20469;-81
2021/12/30 09:03:32;;;;;;;14.85;4.70;;;11.60;99.90;;;;;;5011068;28;20057;-81
2021/12/30 09:05:57;;;;;;;20.92;6.15;;;11.60;99.90;;;;;;5010915;28;20042;-83
2021/12/30 09:08:23;;;;;;;25.65;5.13;;;11.90;99.90;;;;;;5011107;28;20531;-78
2021/12/30 09:10:50;;;;;;;22.08;4.65;;;11.60;99.90;;;;;;5010263;28;20481;-78
2021/12/30 09:13:18;;;;;;;14.45;4.13;;;11.70;99.90;;;;;;4976957;28;20555;-83
2021/12/30 09:15:45;;;;;;;14.60;3.65;;;11.70;99.90;;;;;;4997330;28;20135;-79
2021/12/30 09:18:12;;;;;;;15.07;3.17;;;11.70;99.90;;;;;;4994141;28;20050;-84
2021/12/30 09:20:40;;;;;;;9.15;3.03;;;11.70;99.90;;;;;;4994020;28;20196;-83
2021/12/30 09:23:09;;;;;;;15.02;3.42;;;12.20;99.90;;;;;;5011054;28;20133;-82
2021/12/30 09:25:36;;;;;;;12.90;3.45;;;11.60;99.90;;;;;;4971368;28;20540;-82
2021/12/30 09:28:03;;;;;;;11.38;3.08;;;12.20;99.90;;;;;;4982430;28;20043;-80
2021/12/30 09:30:29;;;;;;;15.13;3.83;;;11.70;99.90;;;;;;4973679;28;20071;-80
2021/12/30 09:32:57;;;;;;;17.92;5.00;;;11.70;99.90;;;;;;4991780;28;20042;-81
2021/12/30 09:35:23;;;;;;;17.42;4.82;;;11.70;99.90;;;;;;4990339;28;20497;-83
2021/12/30 09:37:48;;;;;;;22.50;5.03;;;12.00;99.90;;;;;;4991565;28;20413;-80
2021/12/30 09:40:16;;;;;;;12.20;3.58;;;11.60;99.90;;;;;;4991622;28;20052;-80
2021/12/30 09:42:52;;;;;;;16.25;4.78;;;12.00;99.90;;;;;;4991233;28;20050;-82
2021/12/30 09:45:19;;;;;;;18.38;4.97;;;11.70;99.90;;;;;;4991357;28;20413;-80
2021/12/30 09:47:49;;;;;;;18.48;4.40;;;11.70;99.90;;;;;;4973906;28;20073;-81
2021/12/30 09:50:17;;;;;;;19.98;4.43;;;11.70;99.90;;;;;;4991400;28;20058;-81
2021/12/30 09:52:42;;;;;;;22.60;5.20;;;11.70;99.90;;;;;;4991392;28;20493;-83
2021/12/30 09:55:08;;;;;;;20.77;4.93;;;11.80;99.90;;;;;;4991107;28;20053;-81
2021/12/30 09:57:34;;;;;;;20.25;4.70;;;11.70;99.90;;;;;;4991548;28;20046;-82
2021/12/30 10:00:00;;;;;;;21.02;4.68;;;12.00;99.90;;;;;;5003824;28;20056;-81
2021/12/30 10:02:26;;;;;;;20.80;4.13;;;11.90;99.90;;;;;;5011100;28;20038;-80
2021/12/30 10:05:14;;;;;;;25.85;4.90;;;11.80;99.90;;;;;;5010691;28;20050;-80
2021/12/30 10:07:41;;;;;;;20.02;4.47;;;11.80;99.90;;;;;;4989078;28;20659;-82
2021/12/30 10:10:28;;;;;;;20.92;4.95;;;11.90;99.90;;;;;;4972923;28;20489;-80
2021/12/30 10:12:57;;;;;;;19.77;4.20;;;11.80;99.90;;;;;;4995691;28;20059;-80
2021/12/30 10:15:24;;;;;;;17.73;3.63;;;11.80;99.90;;;;;;4994811;28;20478;-79
2021/12/30 10:18:00;;;;;;;24.88;5.43;;;12.00;99.90;;;;;;4977468;28;20109;-83
2021/12/30 10:20:31;;;;;;;24.85;5.55;;;11.70;99.90;;;;;;4995131;28;20061;-82
2021/12/30 10:23:24;;;;;;;20.55;5.35;;;11.70;99.90;;;;;;4977548;28;20050;-82
2021/12/30 10:25:56;;;;;;;24.58;6.00;;;11.70;99.90;;;;;;4994267;28;20460;-82
2021/12/30 10:28:36;;;;;;;20.65;4.53;;;11.70;99.90;;;;;;5277498;22;20080;-85
2021/12/30 10:31:10;;;;;;;19.55;4.57;;;11.70;99.90;;;;;;5019735;28;20041;-79
2021/12/30 10:33:37;;;;;;;;;;;12.20;99.90;;;;;;5022717;28;20124;-81
2021/12/30 10:36:33;;;;;;;28.27;5.22;;;11.70;99.90;;;;;;5021889;28;19980;-83
2021/12/30 10:39:17;;;;;;;26.35;4.90;;;11.70;99.90;;;;;;5024866;28;20049;-78
2021/12/30 10:41:43;;;;;;;24.98;5.75;;;11.70;99.90;;;;;;5033413;28;20041;-81
2021/12/30 10:44:09;;;;;;;32.72;5.68;;;12.00;99.90;;;;;;5015430;28;20497;-80
2021/12/30 10:46:35;;;;;;;23.20;4.95;;;11.70;99.90;;;;;;5034329;28;20434;-84
2021/12/30 10:49:26;;;;;;;26.55;5.57;;;12.00;99.90;;;;;;5015277;28;20041;-80
2021/12/30 10:51:53;;;;;;;28.70;5.28;;;11.70;99.90;;;;;;5026540;28;20052;-82
2021/12/30 10:54:25;;;;;;;26.45;5.05;;;11.80;99.90;;;;;;5018966;28;20080;-85
2021/12/30 10:56:56;;;;;;;39.15;6.00;;;11.70;99.90;;;;;;5018000;28;20900;-83
2021/12/30 10:59:28;;;;;;;20.77;5.03;;;11.70;99.90;;;;;;5034742;28;20395;-81
2021/12/30 11:01:58;;;;;;;26.70;4.97;;;11.70;99.90;;;;;;5052925;28;20048;-83
2021/12/30 11:04:33;;;;;;;44.10;7.57;;;11.70;99.90;;;;;;5052970;28;20040;-82
2021/12/30 11:06:58;;;;;;;;;;;11.70;99.90;;;;;;5053388;28;20045;-81
2021/12/30 11:09:24;;;;;;;33.17;5.70;;;11.70;99.90;;;;;;5052699;28;20342;-84
2021/12/30 11:11:58;;;;;;;40.78;6.22;;;12.20;99.90;;;;;;5051702;28;20165;-80
2021/12/30 11:14:34;;;;;;;21.97;5.30;;;11.70;99.90;;;;;;5035788;28;20087;-77
2021/12/30 11:17:08;;;;;;;36.47;6.00;;;11.80;99.90;;;;;;5003318;28;20585;-80
2021/12/30 11:19:42;;;;;;;33.15;7.80;;;11.80;99.90;;;;;;5052621;28;20391;-79
2021/12/30 11:22:14;;;;;;;31.20;6.00;;;11.70;99.90;;;;;;5033231;28;20049;-81
2021/12/30 11:24:42;;;;;;;38.95;6.72;;;11.80;99.90;;;;;;5052564;28;20041;-84
2021/12/30 11:27:10;;;;;;;36.40;7.57;;;11.80;99.90;;;;;;5017604;28;20045;-80
2021/12/30 11:29:37;;;;;;;34.38;6.75;;;11.80;99.90;;;;;;5049393;28;20059;-82
2021/12/30 11:32:06;;;;;;;40.20;7.07;;;11.80;99.90;;;;;;5014278;28;20566;-81
2021/12/30 11:34:32;;;;;;;43.20;6.53;;;11.80;99.90;;;;;;5051858;28;20060;-88
2021/12/30 11:37:05;;;;;;;31.83;7.18;;;11.90;99.90;;;;;;5064374;28;20094;-80
2021/12/30 11:39:42;;;;;;;43.33;6.55;;;11.80;99.90;;;;;;5041772;28;20045;-84
2021/12/30 11:42:18;;;;;;;39.85;7.10;;;11.80;99.90;;;;;;5032433;28;20456;-83
2021/12/30 11:44:54;;;;;;;34.08;6.80;;;12.10;99.90;;;;;;5031704;28;20068;-84
2021/12/30 11:47:41;;;;;;;40.55;6.57;;;11.80;99.90;;;;;;4998572;28;20404;-83
2021/12/30 11:50:12;;;;;;;42.85;6.32;;;11.80;99.90;;;;;;4997317;28;20088;-81
2021/12/30 11:52:57;;;;;;;35.03;5.63;;;11.90;99.90;;;;;;4998115;28;20403;-84
2021/12/30 11:55:43;;;;;;;37.60;6.80;;;11.80;99.90;;;;;;5032037;28;20140;-82
2021/12/30 11:58:27;;;;;;;40.63;6.20;;;12.20;99.90;;;;;;5032163;28;20052;-82
2021/12/30 12:00:54;;;;;;;34.97;6.32;;;11.90;99.90;;;;;;5032080;28;20044;-82
2021/12/30 12:03:37;;;;;;;30.55;6.22;;;11.80;99.90;;;;;;5043142;28;20115;-84
2021/12/30 12:06:04;;;;;;;37.42;5.80;;;11.80;99.90;;;;;;5031723;28;20512;-83
2021/12/30 12:08:42;;;;;;;33.55;5.32;;;11.80;99.90;;;;;;5040363;28;20048;-82
2021/12/30 12:11:23;;;;;;;38.35;5.88;;;12.40;99.90;;;;;;5046911;28;20059;-84
2021/12/30 12:14:11;;;;;;;41.35;6.75;;;11.80;99.90;;;;;;5036253;28;20041;-83
2021/12/30 12:16:50;;;;;;;39.35;6.88;;;11.80;99.90;;;;;;5035337;28;20029;-82
2021/12/30 12:19:21;;;;;;;31.42;5.78;;;11.80;99.90;;;;;;5051650;28;20457;-87
2021/12/30 12:21:50;;;;;;;36.17;6.80;;;12.30;99.90;;;;;;5033669;28;20049;-86
2021/12/30 12:24:21;;;;;;;28.67;5.18;;;11.90;99.90;;;;;;5025805;28;20048;-84
2021/12/30 12:26:49;;;;;;;33.03;6.20;;;12.40;99.90;;;;;;5051376;28;20385;-83
2021/12/30 12:29:57;;;;;;;43.97;6.25;;;11.80;99.90;;;;;;5050563;28;20061;-83
2021/12/30 12:32:29;;;;;;;36.58;6.43;;;11.80;99.90;;;;;;5047734;28;20052;-85
2021/12/30 12:34:57;;;;;;;45.30;6.57;;;11.80;99.90;;;;;;5048701;28;20046;-82
2021/12/30 12:37:32;;;;;;;32.00;5.72;;;11.80;99.90;;;;;;5039704;28;20136;-81
2021/12/30 12:40:11;;;;;;;32.65;5.53;;;11.80;99.90;;;;;;5052130;28;20084;-83
2021/12/30 12:42:43;;;;;;;34.08;6.75;;;11.80;99.90;;;;;;5024547;28;20502;-83